sensor_id;sensor_type;location;lat;lon;timestamp;pressure;altitude;pressure_sealevel;temperature;humidity
31005;BME280;17676;52.254;4.490;2023-07-02T00:02:06;100619.53;;;18.08;100.00
31005;BME280;17676;52.254;4.490;2023-07-02T00:04:31;100630.75;;;18.07;100.00
31005;BME280;17676;52.254;4.490;2023-07-02T00:06:57;100628.03;;;18.12;100.00
31005;BME280;17676;52.254;4.490;2023-07-02T00:09:22;100629.72;;;18.13;100.00
31005;BME280;17676;52.254;4.490;2023-07-02T00:11:47;100631.34;;;18.09;100.00
31005;BME280;17676;52.254;4.490;2023-07-02T00:14:14;100615.06;;;17.97;100.00
31005;BME280;17676;52.254;4.490;2023-07-02T00:16:44;100630.16;;;18.00;100.00
31005;BME280;17676;52.254;4.490;2023-07-02T00:19:11;100631.75;;;17.96;100.00
31005;BME280;17676;52.254;4.490;2023-07-02T00:21:37;100638.31;;;17.95;100.00
31005;BME280;17676;52.254;4.490;2023-07-02T00:24:04;100631.72;;;17.91;100.00
31005;BME280;17676;52.254;4.490;2023-07-02T00:26:29;100630.28;;;17.83;100.00
31005;BME280;17676;52.254;4.490;2023-07-02T00:28:55;100635.56;;;17.90;100.00
31005;BME280;17676;52.254;4.490;2023-07-02T00:31:21;100628.09;;;17.85;100.00
31005;BME280;17676;52.254;4.490;2023-07-02T00:33:48;100625.13;;;17.87;100.00
31005;BME280;17676;52.254;4.490;2023-07-02T00:36:13;100616.97;;;17.92;100.00
31005;BME280;17676;52.254;4.490;2023-07-02T00:38:45;100627.31;;;17.85;100.00
31005;BME280;17676;52.254;4.490;2023-07-02T00:41:11;100618.59;;;17.93;100.00
31005;BME280;17676;52.254;4.490;2023-07-02T00:43:37;100620.47;;;17.87;100.00
31005;BME280;17676;52.254;4.490;2023-07-02T00:46:10;100610.28;;;17.83;100.00
31005;BME280;17676;52.254;4.490;2023-07-02T00:48:38;100612.75;;;17.79;100.00
31005;BME280;17676;52.254;4.490;2023-07-02T00:51:04;100621.78;;;17.80;100.00
31005;BME280;17676;52.254;4.490;2023-07-02T00:53:29;100622.03;;;17.78;100.00
31005;BME280;17676;52.254;4.490;2023-07-02T00:55:54;100623.53;;;17.64;100.00
31005;BME280;17676;52.254;4.490;2023-07-02T00:58:20;100620.25;;;17.62;100.00
31005;BME280;17676;52.254;4.490;2023-07-02T01:00:46;100630.38;;;17.62;100.00
31005;BME280;17676;52.254;4.490;2023-07-02T01:03:12;100626.50;;;17.58;100.00
31005;BME280;17676;52.254;4.490;2023-07-02T01:05:37;100628.09;;;17.54;100.00
31005;BME280;17676;52.254;4.490;2023-07-02T01:08:04;100630.88;;;17.59;100.00
31005;BME280;17676;52.254;4.490;2023-07-02T01:10:29;100623.22;;;17.56;100.00
31005;BME280;17676;52.254;4.490;2023-07-02T01:12:57;100631.41;;;17.56;100.00
31005;BME280;17676;52.254;4.490;2023-07-02T01:15:24;100630.31;;;17.57;100.00
31005;BME280;17676;52.254;4.490;2023-07-02T01:17:51;100631.97;;;17.58;100.00
31005;BME280;17676;52.254;4.490;2023-07-02T01:20:18;100628.59;;;17.51;100.00
31005;BME280;17676;52.254;4.490;2023-07-02T01:22:45;100625.84;;;17.46;100.00
31005;BME280;17676;52.254;4.490;2023-07-02T01:25:14;100626.91;;;17.45;100.00
31005;BME280;17676;52.254;4.490;2023-07-02T01:27:40;100623.09;;;17.46;100.00
31005;BME280;17676;52.254;4.490;2023-07-02T01:30:06;100635.13;;;17.45;100.00
31005;BME280;17676;52.254;4.490;2023-07-02T01:32:32;100624.19;;;17.45;100.00
31005;BME280;17676;52.254;4.490;2023-07-02T01:34:57;100634.66;;;17.53;100.00
31005;BME280;17676;52.254;4.490;2023-07-02T01:37:24;100634.91;;;17.51;100.00
31005;BME280;17676;52.254;4.490;2023-07-02T01:39:49;100632.41;;;17.45;100.00
31005;BME280;17676;52.254;4.490;2023-07-02T01:42:16;100629.06;;;17.43;100.00
31005;BME280;17676;52.254;4.490;2023-07-02T01:44:47;100631.88;;;17.48;100.00
31005;BME280;17676;52.254;4.490;2023-07-02T01:47:13;100624.75;;;17.47;100.00
31005;BME280;17676;52.254;4.490;2023-07-02T01:49:39;100624.19;;;17.45;100.00
31005;BME280;17676;52.254;4.490;2023-07-02T01:52:05;100621.72;;;17.43;100.00
31005;BME280;17676;52.254;4.490;2023-07-02T01:54:33;100618.47;;;17.46;100.00
31005;BME280;17676;52.254;4.490;2023-07-02T01:56:59;100623.47;;;17.33;100.00
31005;BME280;17676;52.254;4.490;2023-07-02T01:59:25;100619.94;;;17.37;100.00
31005;BME280;17676;52.254;4.490;2023-07-02T02:01:50;100614.97;;;17.29;100.00
31005;BME280;17676;52.254;4.490;2023-07-02T02:04:16;100615.72;;;17.25;100.00
31005;BME280;17676;52.254;4.490;2023-07-02T02:06:42;100627.69;;;17.19;100.00
31005;BME280;17676;52.254;4.490;2023-07-02T02:09:08;100625.03;;;17.24;100.00
31005;BME280;17676;52.254;4.490;2023-07-02T02:11:36;100620.81;;;17.16;100.00
31005;BME280;17676;52.254;4.490;2023-07-02T02:14:02;100625.94;;;17.08;100.00
31005;BME280;17676;52.254;4.490;2023-07-02T02:16:28;100635.03;;;17.13;100.00
31005;BME280;17676;52.254;4.490;2023-07-02T02:18:54;100631.41;;;17.08;100.00
31005;BME280;17676;52.254;4.490;2023-07-02T02:21:20;100633.25;;;17.02;100.00
31005;BME280;17676;52.254;4.490;2023-07-02T02:23:47;100635.28;;;17.12;100.00
31005;BME280;17676;52.254;4.490;2023-07-02T02:26:12;100636.44;;;17.16;100.00
31005;BME280;17676;52.254;4.490;2023-07-02T02:28:38;100650.31;;;17.09;100.00
31005;BME280;17676;52.254;4.490;2023-07-02T02:31:03;100641.72;;;17.01;100.00
31005;BME280;17676;52.254;4.490;2023-07-02T02:33:29;100649.41;;;17.04;100.00
31005;BME280;17676;52.254;4.490;2023-07-02T02:35:54;100648.31;;;17.05;100.00
31005;BME280;17676;52.254;4.490;2023-07-02T02:38:20;100648.88;;;17.07;100.00
31005;BME280;17676;52.254;4.490;2023-07-02T02:40:45;100653.78;;;17.05;100.00
31005;BME280;17676;52.254;4.490;2023-07-02T02:43:11;100653.28;;;17.08;100.00
31005;BME280;17676;52.254;4.490;2023-07-02T02:45:36;100653.50;;;17.01;100.00
31005;BME280;17676;52.254;4.490;2023-07-02T02:48:01;100668.81;;;17.02;100.00
31005;BME280;17676;52.254;4.490;2023-07-02T02:50:27;100652.34;;;16.97;100.00
31005;BME280;17676;52.254;4.490;2023-07-02T02:52:52;100661.59;;;16.96;100.00
31005;BME280;17676;52.254;4.490;2023-07-02T02:55:18;100664.34;;;16.96;100.00
31005;BME280;17676;52.254;4.490;2023-07-02T02:57:43;100670.91;;;16.95;100.00
31005;BME280;17676;52.254;4.490;2023-07-02T03:00:09;100654.81;;;16.77;100.00
31005;BME280;17676;52.254;4.490;2023-07-02T03:02:36;100666.19;;;16.91;100.00
31005;BME280;17676;52.254;4.490;2023-07-02T03:05:02;100659.00;;;16.85;100.00
31005;BME280;17676;52.254;4.490;2023-07-02T03:07:28;100661.25;;;16.88;100.00
31005;BME280;17676;52.254;4.490;2023-07-02T03:09:53;100647.81;;;16.86;100.00
31005;BME280;17676;52.254;4.490;2023-07-02T03:12:19;100663.50;;;16.74;100.00
31005;BME280;17676;52.254;4.490;2023-07-02T03:14:44;100662.69;;;16.74;100.00
31005;BME280;17676;52.254;4.490;2023-07-02T03:17:10;100672.47;;;16.70;100.00
31005;BME280;17676;52.254;4.490;2023-07-02T03:19:35;100659.38;;;16.72;100.00
31005;BME280;17676;52.254;4.490;2023-07-02T03:22:01;100657.03;;;16.80;100.00
31005;BME280;17676;52.254;4.490;2023-07-02T03:24:26;100660.06;;;16.62;100.00
31005;BME280;17676;52.254;4.490;2023-07-02T03:27:56;100670.31;;;16.72;100.00
31005;BME280;17676;52.254;4.490;2023-07-02T03:30:22;100648.16;;;16.52;100.00
31005;BME280;17676;52.254;4.490;2023-07-02T03:32:47;100667.00;;;16.70;100.00
31005;BME280;17676;52.254;4.490;2023-07-02T03:35:13;100660.38;;;16.66;100.00
31005;BME280;17676;52.254;4.490;2023-07-02T03:37:38;100665.59;;;16.67;100.00
31005;BME280;17676;52.254;4.490;2023-07-02T03:40:07;100659.88;;;16.69;100.00
31005;BME280;17676;52.254;4.490;2023-07-02T03:42:33;100669.34;;;16.61;100.00
31005;BME280;17676;52.254;4.490;2023-07-02T03:44:58;100670.16;;;16.62;100.00
31005;BME280;17676;52.254;4.490;2023-07-02T03:47:24;100666.38;;;16.63;100.00
31005;BME280;17676;52.254;4.490;2023-07-02T03:49:49;100683.88;;;16.67;100.00
31005;BME280;17676;52.254;4.490;2023-07-02T03:52:15;100679.00;;;16.69;100.00
31005;BME280;17676;52.254;4.490;2023-07-02T03:54:41;100679.50;;;16.66;100.00
31005;BME280;17676;52.254;4.490;2023-07-02T03:57:06;100678.50;;;16.72;100.00
31005;BME280;17676;52.254;4.490;2023-07-02T03:59:32;100684.22;;;16.70;100.00
31005;BME280;17676;52.254;4.490;2023-07-02T04:01:57;100683.72;;;16.73;100.00
31005;BME280;17676;52.254;4.490;2023-07-02T04:04:22;100701.25;;;16.56;100.00
31005;BME280;17676;52.254;4.490;2023-07-02T04:06:48;100691.41;;;16.55;100.00
31005;BME280;17676;52.254;4.490;2023-07-02T04:09:13;100700.47;;;16.60;100.00
31005;BME280;17676;52.254;4.490;2023-07-02T04:11:39;100697.50;;;16.62;100.00
31005;BME280;17676;52.254;4.490;2023-07-02T04:14:04;100695.03;;;16.44;100.00
31005;BME280;17676;52.254;4.490;2023-07-02T04:16:30;100693.03;;;16.56;100.00
31005;BME280;17676;52.254;4.490;2023-07-02T04:18:55;100706.53;;;16.46;100.00
31005;BME280;17676;52.254;4.490;2023-07-02T04:21:21;100702.66;;;16.42;100.00
31005;BME280;17676;52.254;4.490;2023-07-02T04:23:46;100700.88;;;16.52;100.00
31005;BME280;17676;52.254;4.490;2023-07-02T04:26:11;100698.50;;;16.56;100.00
31005;BME280;17676;52.254;4.490;2023-07-02T04:28:37;100709.50;;;16.61;100.00
31005;BME280;17676;52.254;4.490;2023-07-02T04:31:02;100707.56;;;16.78;100.00
31005;BME280;17676;52.254;4.490;2023-07-02T04:33:28;100709.88;;;16.86;100.00
31005;BME280;17676;52.254;4.490;2023-07-02T04:36:03;100714.94;;;16.99;100.00
31005;BME280;17676;52.254;4.490;2023-07-02T04:38:29;100718.22;;;16.96;100.00
31005;BME280;17676;52.254;4.490;2023-07-02T04:40:54;100715.09;;;17.09;100.00
31005;BME280;17676;52.254;4.490;2023-07-02T04:43:22;100720.06;;;17.12;100.00
31005;BME280;17676;52.254;4.490;2023-07-02T04:45:48;100715.22;;;17.19;100.00
31005;BME280;17676;52.254;4.490;2023-07-02T04:48:14;100727.38;;;17.06;100.00
31005;BME280;17676;52.254;4.490;2023-07-02T04:50:39;100719.53;;;17.15;100.00
31005;BME280;17676;52.254;4.490;2023-07-02T04:53:05;100721.28;;;17.21;100.00
31005;BME280;17676;52.254;4.490;2023-07-02T04:55:33;100729.03;;;17.29;100.00
31005;BME280;17676;52.254;4.490;2023-07-02T04:57:59;100728.53;;;17.32;100.00
31005;BME280;17676;52.254;4.490;2023-07-02T05:00:24;100735.22;;;17.19;100.00
31005;BME280;17676;52.254;4.490;2023-07-02T05:02:49;100733.88;;;17.22;100.00
31005;BME280;17676;52.254;4.490;2023-07-02T05:05:16;100745.59;;;17.17;100.00
31005;BME280;17676;52.254;4.490;2023-07-02T05:07:41;100719.38;;;17.00;100.00
31005;BME280;17676;52.254;4.490;2023-07-02T05:10:07;100740.94;;;17.18;100.00
31005;BME280;17676;52.254;4.490;2023-07-02T05:12:32;100743.44;;;17.03;100.00
31005;BME280;17676;52.254;4.490;2023-07-02T05:14:58;100740.28;;;17.11;100.00
31005;BME280;17676;52.254;4.490;2023-07-02T05:17:26;100746.53;;;17.28;100.00
31005;BME280;17676;52.254;4.490;2023-07-02T05:19:52;100742.53;;;17.35;100.00
31005;BME280;17676;52.254;4.490;2023-07-02T05:22:18;100726.94;;;17.36;100.00
31005;BME280;17676;52.254;4.490;2023-07-02T05:24:44;100754.03;;;17.37;100.00
31005;BME280;17676;52.254;4.490;2023-07-02T05:27:09;100749.47;;;17.43;100.00
31005;BME280;17676;52.254;4.490;2023-07-02T05:29:35;100756.03;;;17.42;100.00
31005;BME280;17676;52.254;4.490;2023-07-02T05:32:03;100751.66;;;17.41;100.00
31005;BME280;17676;52.254;4.490;2023-07-02T05:34:29;100759.63;;;17.42;100.00
31005;BME280;17676;52.254;4.490;2023-07-02T05:36:54;100758.28;;;17.45;100.00
31005;BME280;17676;52.254;4.490;2023-07-02T05:39:20;100758.81;;;17.68;100.00
31005;BME280;17676;52.254;4.490;2023-07-02T05:41:47;100771.63;;;17.63;100.00
31005;BME280;17676;52.254;4.490;2023-07-02T05:44:12;100770.59;;;17.69;100.00
31005;BME280;17676;52.254;4.490;2023-07-02T05:46:37;100779.66;;;17.48;100.00
31005;BME280;17676;52.254;4.490;2023-07-02T05:49:03;100778.19;;;17.40;100.00
31005;BME280;17676;52.254;4.490;2023-07-02T05:51:28;100774.69;;;17.66;100.00
31005;BME280;17676;52.254;4.490;2023-07-02T05:53:54;100787.09;;;17.74;100.00
31005;BME280;17676;52.254;4.490;2023-07-02T05:56:19;100792.25;;;17.49;100.00
31005;BME280;17676;52.254;4.490;2023-07-02T05:58:45;100795.09;;;17.80;100.00
31005;BME280;17676;52.254;4.490;2023-07-02T06:01:10;100799.38;;;17.71;100.00
31005;BME280;17676;52.254;4.490;2023-07-02T06:03:36;100789.78;;;17.95;100.00
31005;BME280;17676;52.254;4.490;2023-07-02T06:06:02;100802.53;;;18.06;100.00
31005;BME280;17676;52.254;4.490;2023-07-02T06:08:28;100788.28;;;17.83;100.00
31005;BME280;17676;52.254;4.490;2023-07-02T06:10:54;100797.31;;;18.05;100.00
31005;BME280;17676;52.254;4.490;2023-07-02T06:13:19;100792.53;;;18.22;100.00
31005;BME280;17676;52.254;4.490;2023-07-02T06:15:45;100796.59;;;18.41;100.00
31005;BME280;17676;52.254;4.490;2023-07-02T06:18:12;100788.19;;;18.52;100.00
31005;BME280;17676;52.254;4.490;2023-07-02T06:20:37;100802.25;;;18.61;100.00
31005;BME280;17676;52.254;4.490;2023-07-02T06:23:03;100806.66;;;18.67;100.00
31005;BME280;17676;52.254;4.490;2023-07-02T06:25:28;100813.22;;;18.61;100.00
31005;BME280;17676;52.254;4.490;2023-07-02T06:27:54;100820.97;;;18.69;100.00
31005;BME280;17676;52.254;4.490;2023-07-02T06:30:23;100820.66;;;18.70;100.00
31005;BME280;17676;52.254;4.490;2023-07-02T06:32:48;100817.47;;;18.47;100.00
31005;BME280;17676;52.254;4.490;2023-07-02T06:35:14;100816.31;;;18.74;100.00
31005;BME280;17676;52.254;4.490;2023-07-02T06:37:39;100818.72;;;18.66;100.00
31005;BME280;17676;52.254;4.490;2023-07-02T06:40:06;100820.19;;;18.78;100.00
31005;BME280;17676;52.254;4.490;2023-07-02T06:42:31;100821.94;;;19.26;100.00
31005;BME280;17676;52.254;4.490;2023-07-02T06:44:58;100823.41;;;19.02;100.00
31005;BME280;17676;52.254;4.490;2023-07-02T06:47:23;100803.13;;;19.08;100.00
31005;BME280;17676;52.254;4.490;2023-07-02T06:49:49;100829.09;;;19.32;100.00
31005;BME280;17676;52.254;4.490;2023-07-02T06:52:14;100824.06;;;19.71;100.00
31005;BME280;17676;52.254;4.490;2023-07-02T06:54:39;100843.16;;;20.02;100.00
31005;BME280;17676;52.254;4.490;2023-07-02T06:57:05;100847.06;;;20.21;100.00
31005;BME280;17676;52.254;4.490;2023-07-02T06:59:30;100857.00;;;20.37;100.00
31005;BME280;17676;52.254;4.490;2023-07-02T07:01:56;100872.69;;;20.47;100.00
31005;BME280;17676;52.254;4.490;2023-07-02T07:04:21;100878.50;;;20.85;100.00
31005;BME280;17676;52.254;4.490;2023-07-02T07:06:47;101023.78;;;20.78;100.00
31005;BME280;17676;52.254;4.490;2023-07-02T07:09:12;101042.69;;;21.51;100.00
31005;BME280;17676;52.254;4.490;2023-07-02T07:11:38;101074.53;;;22.47;100.00
31005;BME280;17676;52.254;4.490;2023-07-02T07:14:03;101105.44;;;21.34;100.00
31005;BME280;17676;52.254;4.490;2023-07-02T07:16:28;101108.25;;;21.69;100.00
31005;BME280;17676;52.254;4.490;2023-07-02T07:18:54;101119.81;;;22.56;100.00
31005;BME280;17676;52.254;4.490;2023-07-02T07:21:19;101109.78;;;23.34;100.00
31005;BME280;17676;52.254;4.490;2023-07-02T07:23:45;101105.69;;;24.32;100.00
31005;BME280;17676;52.254;4.490;2023-07-02T07:26:11;101116.84;;;24.22;100.00
31005;BME280;17676;52.254;4.490;2023-07-02T07:28:37;101143.72;;;24.17;100.00
31005;BME280;17676;52.254;4.490;2023-07-02T07:31:03;101147.09;;;23.31;100.00
31005;BME280;17676;52.254;4.490;2023-07-02T07:33:28;101162.47;;;23.91;100.00
31005;BME280;17676;52.254;4.490;2023-07-02T07:35:54;101167.66;;;24.60;100.00
31005;BME280;17676;52.254;4.490;2023-07-02T07:38:20;101186.41;;;24.11;100.00
31005;BME280;17676;52.254;4.490;2023-07-02T07:40:45;101191.16;;;23.57;100.00
31005;BME280;17676;52.254;4.490;2023-07-02T07:43:11;101191.75;;;23.48;100.00
31005;BME280;17676;52.254;4.490;2023-07-02T07:45:37;101184.50;;;24.06;100.00
31005;BME280;17676;52.254;4.490;2023-07-02T07:48:03;101212.34;;;23.76;100.00
31005;BME280;17676;52.254;4.490;2023-07-02T07:50:29;101190.63;;;23.98;100.00
31005;BME280;17676;52.254;4.490;2023-07-02T07:52:54;101203.78;;;25.02;100.00
31005;BME280;17676;52.254;4.490;2023-07-02T07:55:20;101227.03;;;25.29;100.00
31005;BME280;17676;52.254;4.490;2023-07-02T07:57:45;101209.31;;;25.49;100.00
31005;BME280;17676;52.254;4.490;2023-07-02T08:00:11;101204.34;;;25.46;100.00
31005;BME280;17676;52.254;4.490;2023-07-02T08:02:37;101212.25;;;25.76;100.00
31005;BME280;17676;52.254;4.490;2023-07-02T08:05:03;101235.28;;;25.95;100.00
31005;BME280;17676;52.254;4.490;2023-07-02T08:07:29;101223.28;;;26.18;100.00
31005;BME280;17676;52.254;4.490;2023-07-02T08:09:54;101225.72;;;26.70;100.00
31005;BME280;17676;52.254;4.490;2023-07-02T08:12:20;101238.84;;;26.96;100.00
31005;BME280;17676;52.254;4.490;2023-07-02T08:14:45;101204.34;;;26.84;100.00
31005;BME280;17676;52.254;4.490;2023-07-02T08:17:11;101204.41;;;24.94;100.00
31005;BME280;17676;52.254;4.490;2023-07-02T08:19:36;101162.50;;;25.24;100.00
31005;BME280;17676;52.254;4.490;2023-07-02T08:22:01;101167.72;;;25.07;100.00
31005;BME280;17676;52.254;4.490;2023-07-02T08:24:28;101181.34;;;25.22;100.00
31005;BME280;17676;52.254;4.490;2023-07-02T08:26:53;101187.34;;;25.71;100.00
31005;BME280;17676;52.254;4.490;2023-07-02T08:29:19;101210.00;;;25.96;100.00
31005;BME280;17676;52.254;4.490;2023-07-02T08:31:44;101179.47;;;25.59;100.00
31005;BME280;17676;52.254;4.490;2023-07-02T08:34:10;101193.13;;;25.56;100.00
31005;BME280;17676;52.254;4.490;2023-07-02T08:36:35;101208.72;;;26.58;100.00
31005;BME280;17676;52.254;4.490;2023-07-02T08:39:00;101235.81;;;26.66;100.00
31005;BME280;17676;52.254;4.490;2023-07-02T08:41:26;101262.88;;;26.74;100.00
31005;BME280;17676;52.254;4.490;2023-07-02T08:43:54;101213.00;;;24.97;100.00
31005;BME280;17676;52.254;4.490;2023-07-02T08:46:20;101199.19;;;25.58;100.00
31005;BME280;17676;52.254;4.490;2023-07-02T08:48:46;101218.28;;;25.41;100.00
31005;BME280;17676;52.254;4.490;2023-07-02T08:51:12;101189.75;;;26.14;100.00
31005;BME280;17676;52.254;4.490;2023-07-02T08:53:40;101252.53;;;25.92;100.00
31005;BME280;17676;52.254;4.490;2023-07-02T08:56:06;101240.66;;;25.86;100.00
31005;BME280;17676;52.254;4.490;2023-07-02T08:58:31;101217.19;;;25.79;100.00
31005;BME280;17676;52.254;4.490;2023-07-02T09:01:10;101231.09;;;26.48;100.00
31005;BME280;17676;52.254;4.490;2023-07-02T09:03:37;101233.75;;;26.71;100.00
31005;BME280;17676;52.254;4.490;2023-07-02T09:06:07;101269.72;;;26.95;100.00
31005;BME280;17676;52.254;4.490;2023-07-02T09:08:34;101291.13;;;27.08;100.00
31005;BME280;17676;52.254;4.490;2023-07-02T09:11:15;101264.28;;;26.39;100.00
31005;BME280;17676;52.254;4.490;2023-07-02T09:13:49;101250.03;;;26.27;100.00
31005;BME280;17676;52.254;4.490;2023-07-02T09:16:25;101274.84;;;25.82;100.00
31005;BME280;17676;52.254;4.490;2023-07-02T09:19:03;101240.59;;;27.19;100.00
31005;BME280;17676;52.254;4.490;2023-07-02T09:21:38;101256.91;;;27.26;100.00
31005;BME280;17676;52.254;4.490;2023-07-02T09:26:45;101287.28;;;27.49;100.00
31005;BME280;17676;52.254;4.490;2023-07-02T09:29:11;101305.09;;;27.21;100.00
31005;BME280;17676;52.254;4.490;2023-07-02T09:31:46;101284.50;;;26.26;100.00
31005;BME280;17676;52.254;4.490;2023-07-02T09:34:12;101256.69;;;25.29;100.00
31005;BME280;17676;52.254;4.490;2023-07-02T09:36:38;101235.97;;;26.05;100.00
31005;BME280;17676;52.254;4.490;2023-07-02T09:39:19;101295.16;;;27.02;100.00
31005;BME280;17676;52.254;4.490;2023-07-02T09:41:48;101313.97;;;26.59;100.00
31005;BME280;17676;52.254;4.490;2023-07-02T09:44:14;101305.06;;;25.13;100.00
31005;BME280;17676;52.254;4.490;2023-07-02T09:46:52;101260.00;;;25.31;100.00
31005;BME280;17676;52.254;4.490;2023-07-02T09:49:20;101262.09;;;25.81;100.00
31005;BME280;17676;52.254;4.490;2023-07-02T09:51:46;101272.75;;;26.48;100.00
31005;BME280;17676;52.254;4.490;2023-07-02T09:54:11;101295.50;;;26.50;100.00
31005;BME280;17676;52.254;4.490;2023-07-02T09:56:39;101273.22;;;26.18;100.00
31005;BME280;17676;52.254;4.490;2023-07-02T09:59:04;101282.94;;;25.60;100.00
31005;BME280;17676;52.254;4.490;2023-07-02T10:01:30;101303.56;;;25.96;100.00
31005;BME280;17676;52.254;4.490;2023-07-02T10:03:55;101295.44;;;25.34;100.00
31005;BME280;17676;52.254;4.490;2023-07-02T10:06:21;101286.69;;;25.69;100.00
31005;BME280;17676;52.254;4.490;2023-07-02T10:08:54;101286.78;;;24.88;100.00
31005;BME280;17676;52.254;4.490;2023-07-02T10:11:20;101304.41;;;25.91;100.00
31005;BME280;17676;52.254;4.490;2023-07-02T10:13:45;101311.19;;;26.41;100.00
31005;BME280;17676;52.254;4.490;2023-07-02T10:16:10;101318.84;;;26.49;100.00
31005;BME280;17676;52.254;4.490;2023-07-02T10:18:36;101339.41;;;25.87;100.00
31005;BME280;17676;52.254;4.490;2023-07-02T10:21:13;101360.72;;;27.03;100.00
31005;BME280;17676;52.254;4.490;2023-07-02T10:23:39;101365.53;;;26.84;100.00
31005;BME280;17676;52.254;4.490;2023-07-02T10:28:40;101338.88;;;26.27;100.00
31005;BME280;17676;52.254;4.490;2023-07-02T10:31:17;101327.25;;;26.07;100.00
31005;BME280;17676;52.254;4.490;2023-07-02T10:33:43;101299.72;;;25.21;100.00
31005;BME280;17676;52.254;4.490;2023-07-02T10:36:17;101347.03;;;24.29;100.00
31005;BME280;17676;52.254;4.490;2023-07-02T10:38:43;101320.75;;;24.99;100.00
31005;BME280;17676;52.254;4.490;2023-07-02T10:41:08;101323.31;;;25.19;100.00
31005;BME280;17676;52.254;4.490;2023-07-02T10:43:33;101314.81;;;25.10;100.00
31005;BME280;17676;52.254;4.490;2023-07-02T10:45:59;101308.66;;;25.65;100.00
31005;BME280;17676;52.254;4.490;2023-07-02T10:48:25;101325.97;;;25.99;100.00
31005;BME280;17676;52.254;4.490;2023-07-02T10:50:50;101294.50;;;25.85;100.00
31005;BME280;17676;52.254;4.490;2023-07-02T10:53:17;101276.94;;;25.90;100.00
31005;BME280;17676;52.254;4.490;2023-07-02T10:55:43;101294.75;;;25.18;100.00
31005;BME280;17676;52.254;4.490;2023-07-02T10:58:10;101279.91;;;24.81;100.00
31005;BME280;17676;52.254;4.490;2023-07-02T11:00:45;101312.56;;;25.41;100.00
31005;BME280;17676;52.254;4.490;2023-07-02T11:03:23;101319.59;;;24.71;100.00
31005;BME280;17676;52.254;4.490;2023-07-02T11:05:51;101280.31;;;24.31;100.00
31005;BME280;17676;52.254;4.490;2023-07-02T11:08:18;101293.44;;;24.49;100.00
31005;BME280;17676;52.254;4.490;2023-07-02T11:10:43;101295.50;;;24.72;100.00
31005;BME280;17676;52.254;4.490;2023-07-02T11:13:16;101318.00;;;24.27;100.00
31005;BME280;17676;52.254;4.490;2023-07-02T11:15:43;101319.31;;;24.73;100.00
31005;BME280;17676;52.254;4.490;2023-07-02T11:18:15;101297.66;;;24.03;100.00
31005;BME280;17676;52.254;4.490;2023-07-02T11:20:43;101298.78;;;24.02;100.00
31005;BME280;17676;52.254;4.490;2023-07-02T11:23:24;101291.06;;;23.10;100.00
31005;BME280;17676;52.254;4.490;2023-07-02T11:25:55;101290.69;;;23.57;100.00
31005;BME280;17676;52.254;4.490;2023-07-02T11:28:20;101306.59;;;22.86;100.00
31005;BME280;17676;52.254;4.490;2023-07-02T11:30:46;101298.06;;;23.71;100.00
31005;BME280;17676;52.254;4.490;2023-07-02T11:33:11;101322.34;;;24.33;100.00
31005;BME280;17676;52.254;4.490;2023-07-02T11:35:37;101335.06;;;23.85;100.00
31005;BME280;17676;52.254;4.490;2023-07-02T11:38:02;101313.88;;;23.61;100.00
31005;BME280;17676;52.254;4.490;2023-07-02T11:40:28;101305.16;;;23.28;100.00
31005;BME280;17676;52.254;4.490;2023-07-02T11:42:53;101314.00;;;23.30;100.00
31005;BME280;17676;52.254;4.490;2023-07-02T11:45:18;101289.09;;;23.35;100.00
31005;BME280;17676;52.254;4.490;2023-07-02T11:47:44;101302.53;;;24.21;100.00
31005;BME280;17676;52.254;4.490;2023-07-02T11:50:10;101294.41;;;23.12;100.00
31005;BME280;17676;52.254;4.490;2023-07-02T11:52:35;101302.94;;;23.30;100.00
31005;BME280;17676;52.254;4.490;2023-07-02T11:55:01;101306.53;;;23.26;100.00
31005;BME280;17676;52.254;4.490;2023-07-02T11:57:26;101307.94;;;23.23;100.00
31005;BME280;17676;52.254;4.490;2023-07-02T11:59:52;101320.09;;;23.07;100.00
31005;BME280;17676;52.254;4.490;2023-07-02T12:02:18;101311.56;;;22.84;100.00
31005;BME280;17676;52.254;4.490;2023-07-02T12:04:44;101300.78;;;22.97;100.00
31005;BME280;17676;52.254;4.490;2023-07-02T12:07:09;101346.63;;;22.93;100.00
31005;BME280;17676;52.254;4.490;2023-07-02T12:09:35;101331.09;;;22.17;100.00
31005;BME280;17676;52.254;4.490;2023-07-02T12:12:01;101320.06;;;22.12;100.00
31005;BME280;17676;52.254;4.490;2023-07-02T12:14:27;101322.59;;;22.39;100.00
31005;BME280;17676;52.254;4.490;2023-07-02T12:16:52;101293.09;;;22.64;100.00
31005;BME280;17676;52.254;4.490;2023-07-02T12:19:17;101314.59;;;22.47;100.00
31005;BME280;17676;52.254;4.490;2023-07-02T12:21:43;101363.41;;;22.32;100.00
31005;BME280;17676;52.254;4.490;2023-07-02T12:24:08;101342.75;;;22.99;100.00
31005;BME280;17676;52.254;4.490;2023-07-02T12:26:39;101361.53;;;22.52;100.00
31005;BME280;17676;52.254;4.490;2023-07-02T12:29:05;101329.81;;;22.60;100.00
31005;BME280;17676;52.254;4.490;2023-07-02T12:31:31;101349.41;;;22.78;100.00
31005;BME280;17676;52.254;4.490;2023-07-02T12:33:56;101377.06;;;21.92;100.00
31005;BME280;17676;52.254;4.490;2023-07-02T12:36:22;101349.78;;;21.95;100.00
31005;BME280;17676;52.254;4.490;2023-07-02T12:38:47;101364.13;;;22.02;100.00
31005;BME280;17676;52.254;4.490;2023-07-02T12:41:13;101353.16;;;22.12;100.00
31005;BME280;17676;52.254;4.490;2023-07-02T12:43:38;101365.84;;;22.13;100.00